createdAt,value
2023-01-26T00:00:59.846Z,16.92
2023-01-26T00:03:27.769Z,17.60
2023-01-26T00:05:55.261Z,16.90
2023-01-26T00:08:22.698Z,15.27
2023-01-26T00:10:51.267Z,15.52
2023-01-26T00:13:19.803Z,15.98
2023-01-26T00:15:48.862Z,15.32
2023-01-26T00:18:16.398Z,14.18
2023-01-26T00:20:43.910Z,15.68
2023-01-26T00:23:11.393Z,14.73
2023-01-26T00:25:40.891Z,16.02
2023-01-26T00:28:08.339Z,14.45
2023-01-26T00:30:35.843Z,14.90
2023-01-26T00:33:04.780Z,14.68
2023-01-26T00:35:32.308Z,14.82
2023-01-26T00:38:00.008Z,14.60
2023-01-26T00:40:27.455Z,14.13
2023-01-26T00:42:55.365Z,15.48
2023-01-26T00:45:22.799Z,16.95
2023-01-26T00:48:00.420Z,16.15
2023-01-26T00:50:29.279Z,15.57
2023-01-26T00:52:56.704Z,16.52
2023-01-26T00:55:24.257Z,17.60
2023-01-26T00:57:51.731Z,17.13
2023-01-26T01:00:20.266Z,18.30
2023-01-26T01:02:47.722Z,18.20
2023-01-26T01:05:15.601Z,18.92
2023-01-26T01:07:45.347Z,20.20
2023-01-26T01:10:13.250Z,17.38
2023-01-26T01:12:41.059Z,17.60
2023-01-26T01:15:10.330Z,18.42
2023-01-26T01:17:38.535Z,18.65
2023-01-26T01:20:08.285Z,18.85
2023-01-26T01:22:36.851Z,17.75
2023-01-26T01:25:06.383Z,18.67
2023-01-26T01:27:33.924Z,19.40
2023-01-26T01:30:01.739Z,19.27
2023-01-26T01:32:29.291Z,19.30
2023-01-26T01:34:56.735Z,19.38
2023-01-26T01:37:24.221Z,18.42
2023-01-26T01:39:51.839Z,19.85
2023-01-26T01:42:21.122Z,19.88
2023-01-26T01:45:26.980Z,20.17
2023-01-26T01:47:55.550Z,18.85
2023-01-26T01:50:23.247Z,19.60
2023-01-26T01:52:50.838Z,19.25
2023-01-26T01:55:18.566Z,19.65
2023-01-26T01:57:51.669Z,19.92
2023-01-26T02:00:20.866Z,22.13
2023-01-26T02:03:10.977Z,18.58
2023-01-26T02:05:43.044Z,18.48
2023-01-26T02:08:11.055Z,19.00
2023-01-26T02:10:39.011Z,19.45
2023-01-26T02:13:08.452Z,19.85
2023-01-26T02:15:36.055Z,20.00
2023-01-26T02:18:04.969Z,18.70
2023-01-26T02:20:38.336Z,20.40
2023-01-26T02:23:10.560Z,19.52
2023-01-26T02:25:41.559Z,20.95
2023-01-26T02:28:10.339Z,22.13
2023-01-26T02:30:37.939Z,20.77
2023-01-26T02:33:05.429Z,23.00
2023-01-26T02:35:32.923Z,22.70
2023-01-26T02:38:00.424Z,22.42
2023-01-26T02:40:33.486Z,22.42
2023-01-26T02:43:00.121Z,22.40
2023-01-26T02:45:29.148Z,22.75
2023-01-26T02:47:57.892Z,23.20
2023-01-26T02:50:24.456Z,23.05
2023-01-26T02:52:51.938Z,22.33
2023-01-26T02:55:26.332Z,24.17
2023-01-26T02:57:56.008Z,23.75
2023-01-26T03:00:25.140Z,24.25
2023-01-26T03:02:55.828Z,22.92
2023-01-26T03:05:23.391Z,24.17
2023-01-26T03:07:51.429Z,22.00
2023-01-26T03:10:19.670Z,23.75
2023-01-26T03:12:47.938Z,23.58
2023-01-26T03:15:33.135Z,22.35
2023-01-26T03:18:32.243Z,21.13
2023-01-26T03:21:18.087Z,21.83
2023-01-26T03:24:03.609Z,22.10
2023-01-26T03:26:48.631Z,19.67
2023-01-26T03:29:16.205Z,19.83
2023-01-26T03:31:43.839Z,21.98
2023-01-26T03:34:12.671Z,23.00
2023-01-26T03:36:40.168Z,20.85
2023-01-26T03:39:07.810Z,20.83
2023-01-26T03:41:52.833Z,19.70
2023-01-26T03:44:38.133Z,19.38
2023-01-26T03:47:24.026Z,19.63
2023-01-26T03:50:11.007Z,18.90
2023-01-26T03:52:56.675Z,19.45
2023-01-26T03:55:41.998Z,20.10
2023-01-26T03:58:09.652Z,18.98
2023-01-26T04:00:37.161Z,18.95
2023-01-26T04:03:22.240Z,18.40
2023-01-26T04:06:15.625Z,18.25
2023-01-26T04:08:44.228Z,17.88
2023-01-26T04:11:11.742Z,17.55
2023-01-26T04:13:56.748Z,20.00
2023-01-26T04:16:42.056Z,18.55
2023-01-26T04:19:27.546Z,17.80
2023-01-26T04:21:56.354Z,16.33
2023-01-26T04:24:24.652Z,16.02
2023-01-26T04:26:52.159Z,16.95
2023-01-26T04:29:19.637Z,17.55
2023-01-26T04:31:47.190Z,16.27
2023-01-26T04:34:16.100Z,17.38
2023-01-26T04:36:44.007Z,16.60
2023-01-26T04:39:12.837Z,17.02
2023-01-26T04:41:42.328Z,16.08
2023-01-26T04:44:10.022Z,16.38
2023-01-26T04:46:37.574Z,15.15
2023-01-26T04:49:05.097Z,15.65
2023-01-26T04:51:32.571Z,17.15
2023-01-26T04:54:00.043Z,15.85
2023-01-26T04:56:30.918Z,16.23
2023-01-26T04:59:00.630Z,15.00
2023-01-26T05:01:28.688Z,14.85
2023-01-26T05:03:56.269Z,14.02
2023-01-26T05:06:23.811Z,13.95
2023-01-26T05:08:51.223Z,13.73
2023-01-26T05:11:18.719Z,14.30
2023-01-26T05:13:47.796Z,15.57
2023-01-26T05:16:15.518Z,15.80
2023-01-26T05:18:43.294Z,17.05
2023-01-26T05:21:11.868Z,17.15
2023-01-26T05:23:48.400Z,16.27
2023-01-26T05:26:15.895Z,17.95
2023-01-26T05:28:43.369Z,17.38
2023-01-26T05:31:12.292Z,18.92
2023-01-26T05:33:39.872Z,16.73
2023-01-26T05:36:09.024Z,15.32
2023-01-26T05:38:36.554Z,16.38
2023-01-26T05:41:04.035Z,17.55
2023-01-26T05:43:31.644Z,16.58
2023-01-26T05:45:59.340Z,15.60
2023-01-26T05:48:28.173Z,17.42
2023-01-26T05:50:56.853Z,18.20
2023-01-26T05:53:24.380Z,16.48
2023-01-26T05:55:51.867Z,16.58
2023-01-26T05:58:19.469Z,16.63
2023-01-26T06:00:46.967Z,16.48
2023-01-26T06:03:14.901Z,15.57
2023-01-26T06:05:43.657Z,16.92
2023-01-26T06:08:11.147Z,17.05
2023-01-26T06:10:38.592Z,18.30
2023-01-26T06:13:06.054Z,17.35
2023-01-26T06:15:33.471Z,16.83
2023-01-26T06:18:01.906Z,18.00
2023-01-26T06:20:29.384Z,18.23
2023-01-26T06:23:02.521Z,17.05
2023-01-26T06:25:30.064Z,17.25
2023-01-26T06:28:00.413Z,16.83
2023-01-26T06:30:28.143Z,15.55
2023-01-26T06:32:56.778Z,17.02
2023-01-26T06:35:26.440Z,15.23
2023-01-26T06:37:54.106Z,16.42
2023-01-26T06:40:23.141Z,16.23
2023-01-26T06:42:51.045Z,16.30
2023-01-26T06:45:20.598Z,16.20
2023-01-26T06:47:48.155Z,17.08
2023-01-26T06:50:16.965Z,16.77
2023-01-26T06:52:47.472Z,17.15
2023-01-26T06:55:20.303Z,16.05
2023-01-26T06:57:49.120Z,16.63
2023-01-26T07:00:17.349Z,18.33
2023-01-26T07:02:44.974Z,17.55
2023-01-26T07:05:12.869Z,17.85
2023-01-26T07:07:40.454Z,16.42
2023-01-26T07:10:08.892Z,14.63
2023-01-26T07:12:40.492Z,15.23
2023-01-26T07:15:10.961Z,14.93
2023-01-26T07:17:38.562Z,15.15
2023-01-26T07:20:07.205Z,15.90
2023-01-26T07:22:34.672Z,16.60
2023-01-26T07:25:02.139Z,15.40
2023-01-26T07:27:29.605Z,15.75
2023-01-26T07:29:57.153Z,18.60
2023-01-26T07:32:25.960Z,18.45
2023-01-26T07:34:53.479Z,16.65
2023-01-26T07:37:20.983Z,16.48
2023-01-26T07:39:49.087Z,16.83
2023-01-26T07:42:16.549Z,16.95
2023-01-26T07:44:44.052Z,15.88
2023-01-26T07:47:11.514Z,14.68
2023-01-26T07:49:40.350Z,14.75
2023-01-26T07:52:08.590Z,14.43
2023-01-26T07:54:36.338Z,15.05
2023-01-26T07:57:05.755Z,15.68
2023-01-26T07:59:33.367Z,17.52
2023-01-26T08:02:01.047Z,16.65
2023-01-26T08:04:28.602Z,17.42
2023-01-26T08:06:57.364Z,16.20
2023-01-26T08:09:25.944Z,16.30
2023-01-26T08:11:53.405Z,14.15
2023-01-26T08:14:20.891Z,14.18
2023-01-26T08:16:48.383Z,13.27
2023-01-26T08:19:16.103Z,14.20
2023-01-26T08:21:43.540Z,13.15
2023-01-26T08:24:13.671Z,12.32
2023-01-26T08:26:41.158Z,12.73
2023-01-26T08:29:08.662Z,11.23
2023-01-26T08:31:36.128Z,11.00
2023-01-26T08:34:04.175Z,11.88
2023-01-26T08:36:31.644Z,11.38
2023-01-26T08:38:59.090Z,12.57
2023-01-26T08:41:27.912Z,12.98
2023-01-26T08:43:59.190Z,13.07
2023-01-26T08:46:27.124Z,13.88
2023-01-26T08:48:54.549Z,13.30
2023-01-26T08:51:22.042Z,12.40
2023-01-26T08:53:49.532Z,13.32
2023-01-26T08:56:17.030Z,14.27
2023-01-26T08:58:46.320Z,13.98
2023-01-26T09:01:15.432Z,13.43
2023-01-26T09:03:43.324Z,13.48
2023-01-26T09:06:13.467Z,14.27
2023-01-26T09:08:41.079Z,13.48
2023-01-26T09:11:09.116Z,14.82
2023-01-26T09:13:37.282Z,15.10
2023-01-26T09:16:07.480Z,14.35
2023-01-26T09:18:35.485Z,13.40
2023-01-26T09:21:06.425Z,13.85
2023-01-26T09:23:34.814Z,13.98
2023-01-26T09:26:02.821Z,12.80
2023-01-26T09:28:30.473Z,11.88
2023-01-26T09:30:58.087Z,12.55
2023-01-26T09:33:26.962Z,13.68
2023-01-26T09:35:54.400Z,13.35
2023-01-26T09:38:21.903Z,12.40
2023-01-26T09:40:54.927Z,13.77
2023-01-26T09:43:26.659Z,13.95
2023-01-26T09:48:32.767Z,13.77
2023-01-26T09:51:05.103Z,13.90
2023-01-26T09:53:42.199Z,15.30
2023-01-26T09:56:16.211Z,15.48
2023-01-26T09:58:46.568Z,15.85
2023-01-26T10:01:18.517Z,15.75
2023-01-26T10:03:49.396Z,14.57
2023-01-26T10:06:21.522Z,10.37
2023-01-26T10:08:49.990Z,12.00
2023-01-26T10:11:20.738Z,12.25
2023-01-26T10:13:52.567Z,10.50
2023-01-26T10:16:24.365Z,12.10
2023-01-26T10:21:26.151Z,10.98
2023-01-26T10:23:53.746Z,9.48
2023-01-26T10:26:22.800Z,13.10
2023-01-26T10:28:51.548Z,13.63
2023-01-26T10:31:21.806Z,12.82
2023-01-26T10:33:52.785Z,12.38
2023-01-26T10:36:22.069Z,13.17
2023-01-26T10:38:50.427Z,11.05
2023-01-26T10:41:24.957Z,11.82
2023-01-26T10:43:54.837Z,11.23
2023-01-26T10:46:30.211Z,11.65
2023-01-26T10:48:59.413Z,11.52
2023-01-26T10:51:30.775Z,11.55
2023-01-26T10:54:22.242Z,12.25
2023-01-26T10:56:52.327Z,11.98
2023-01-26T10:59:32.370Z,12.20
2023-01-26T11:02:02.060Z,12.38
2023-01-26T11:04:30.544Z,11.27
2023-01-26T11:07:16.683Z,9.80
2023-01-26T11:09:44.129Z,11.02
2023-01-26T11:12:19.012Z,11.30
2023-01-26T11:15:01.410Z,11.05
2023-01-26T11:17:32.376Z,11.82
2023-01-26T11:20:08.605Z,11.48
2023-01-26T11:22:43.248Z,11.07
2023-01-26T11:25:17.616Z,12.45
2023-01-26T11:27:54.557Z,12.80
2023-01-26T11:30:36.626Z,11.68
2023-01-26T11:33:10.455Z,11.95
2023-01-26T11:35:46.711Z,13.02
2023-01-26T11:38:34.034Z,12.95
2023-01-26T11:41:12.057Z,12.65
2023-01-26T11:44:08.836Z,12.60
2023-01-26T11:46:49.117Z,11.82
2023-01-26T11:49:25.142Z,11.23
2023-01-26T11:52:01.461Z,11.35
2023-01-26T11:54:38.729Z,11.13
2023-01-26T11:57:14.637Z,12.20
2023-01-26T11:59:45.716Z,12.40
2023-01-26T12:02:27.586Z,11.23
2023-01-26T12:04:57.156Z,11.88
2023-01-26T12:07:28.696Z,11.15
2023-01-26T12:09:57.939Z,12.05
2023-01-26T12:12:31.994Z,12.30
2023-01-26T12:15:05.829Z,11.43
2023-01-26T12:17:41.738Z,12.23
2023-01-26T12:20:29.795Z,11.38
2023-01-26T12:23:04.625Z,10.48
2023-01-26T12:25:36.262Z,9.50
2023-01-26T12:28:12.983Z,10.15
2023-01-26T12:30:45.024Z,9.45
2023-01-26T12:33:12.592Z,8.77
2023-01-26T12:35:59.337Z,8.02
2023-01-26T12:38:36.954Z,9.85
2023-01-26T12:41:11.816Z,9.05
2023-01-26T12:43:56.326Z,8.65
2023-01-26T12:46:25.518Z,8.85
2023-01-26T12:48:55.112Z,9.07
2023-01-26T12:51:27.174Z,9.50
2023-01-26T12:53:59.008Z,8.55
2023-01-26T12:56:31.932Z,8.77
2023-01-26T12:59:01.579Z,9.18
2023-01-26T13:01:39.432Z,9.10
2023-01-26T13:04:10.281Z,8.98
2023-01-26T13:06:37.884Z,9.07
2023-01-26T13:09:20.711Z,9.80
2023-01-26T13:11:52.085Z,9.52
2023-01-26T13:14:32.125Z,10.43
2023-01-26T13:17:34.618Z,9.93
2023-01-26T13:20:16.748Z,11.60
2023-01-26T13:22:44.219Z,10.90
2023-01-26T13:25:17.068Z,10.18
2023-01-26T13:27:47.160Z,9.77
2023-01-26T13:30:33.927Z,9.57
2023-01-26T13:33:12.021Z,9.70
2023-01-26T13:35:41.237Z,11.00
2023-01-26T13:38:15.093Z,10.55
2023-01-26T13:40:44.244Z,10.82
2023-01-26T13:43:26.270Z,9.52
2023-01-26T13:46:01.219Z,9.45
2023-01-26T13:48:37.875Z,9.82
2023-01-26T13:51:08.488Z,10.38
2023-01-26T13:53:37.504Z,8.27
2023-01-26T13:56:06.885Z,8.80
2023-01-26T13:58:35.183Z,9.63
2023-01-26T14:01:04.164Z,8.77
2023-01-26T14:03:31.941Z,8.68
2023-01-26T14:06:02.790Z,9.80
2023-01-26T14:08:32.246Z,10.00
2023-01-26T14:11:00.697Z,10.00
2023-01-26T14:13:34.406Z,9.77
2023-01-26T14:16:05.603Z,10.23
2023-01-26T14:18:33.246Z,10.52
2023-01-26T14:21:04.040Z,11.63
2023-01-26T14:23:35.536Z,11.17
2023-01-26T14:26:04.708Z,12.63
2023-01-26T14:28:34.447Z,12.52
2023-01-26T14:31:07.468Z,13.85
2023-01-26T14:33:37.375Z,13.70
2023-01-26T14:36:06.292Z,11.98
2023-01-26T14:38:44.168Z,12.60
2023-01-26T14:41:16.576Z,12.43
2023-01-26T14:43:44.079Z,12.45
2023-01-26T14:46:16.295Z,12.52
2023-01-26T14:48:47.236Z,11.70
2023-01-26T14:51:19.484Z,9.60
2023-01-26T14:53:52.453Z,13.02
2023-01-26T14:56:21.122Z,13.57
2023-01-26T14:58:52.001Z,13.15
2023-01-26T15:01:23.487Z,13.90
2023-01-26T15:03:52.191Z,16.50
2023-01-26T15:06:23.439Z,13.65
2023-01-26T15:08:58.164Z,15.45
2023-01-26T15:11:49.169Z,14.55
2023-01-26T15:14:32.156Z,10.85
2023-01-26T15:16:59.891Z,15.35
2023-01-26T15:19:28.243Z,16.95
2023-01-26T15:21:55.855Z,17.73
2023-01-26T15:24:24.737Z,17.35
2023-01-26T15:26:52.267Z,18.85
2023-01-26T15:29:25.028Z,17.20
2023-01-26T15:31:54.029Z,17.52
2023-01-26T15:34:34.751Z,17.13
2023-01-26T15:37:02.776Z,18.60
2023-01-26T15:39:31.817Z,17.98
2023-01-26T15:42:02.882Z,16.95
2023-01-26T15:44:30.430Z,16.38
2023-01-26T15:46:59.279Z,17.42
2023-01-26T15:49:26.852Z,18.75
2023-01-26T15:51:54.317Z,17.90
2023-01-26T15:54:21.780Z,17.60
2023-01-26T15:56:50.616Z,18.90
2023-01-26T15:59:18.217Z,18.30
2023-01-26T16:01:45.883Z,18.27
2023-01-26T16:04:13.903Z,18.35
2023-01-26T16:06:42.685Z,18.17
2023-01-26T16:09:10.187Z,20.88
2023-01-26T16:11:42.431Z,19.83
2023-01-26T16:14:13.321Z,19.85
2023-01-26T16:16:40.846Z,15.17
2023-01-26T16:19:08.890Z,19.17
2023-01-26T16:21:40.741Z,23.27
2023-01-26T16:24:08.628Z,21.48
2023-01-26T16:26:36.163Z,20.73
2023-01-26T16:29:03.613Z,21.73
2023-01-26T16:31:34.618Z,21.25
2023-01-26T16:34:02.129Z,16.25
2023-01-26T16:36:29.822Z,21.10
2023-01-26T16:38:57.333Z,21.98
2023-01-26T16:41:26.693Z,21.15
2023-01-26T16:43:55.646Z,20.77
2023-01-26T16:46:23.514Z,20.60
2023-01-26T16:48:52.948Z,22.67
2023-01-26T16:51:22.176Z,20.58
2023-01-26T16:53:50.580Z,20.77
2023-01-26T16:56:19.173Z,22.63
2023-01-26T16:58:46.987Z,20.35
2023-01-26T17:01:20.777Z,21.33
2023-01-26T17:03:49.037Z,19.92
2023-01-26T17:06:19.404Z,21.23
2023-01-26T17:08:47.425Z,20.42
2023-01-26T17:11:19.241Z,21.13
2023-01-26T17:13:47.627Z,22.02
2023-01-26T17:16:18.272Z,20.80
2023-01-26T17:18:46.509Z,19.75
2023-01-26T17:21:14.456Z,21.40
2023-01-26T17:23:44.711Z,22.08
2023-01-26T17:26:13.142Z,19.88
2023-01-26T17:28:40.597Z,18.80
2023-01-26T17:31:11.335Z,17.98
2023-01-26T17:33:39.503Z,15.35
2023-01-26T17:36:07.932Z,20.23
2023-01-26T17:38:35.687Z,21.92
2023-01-26T17:41:05.427Z,21.40
2023-01-26T17:43:33.022Z,20.38
2023-01-26T17:46:05.901Z,21.65
2023-01-26T17:48:34.335Z,21.50
2023-01-26T17:51:01.800Z,24.60
2023-01-26T17:53:30.579Z,21.67
2023-01-26T17:55:58.099Z,20.15
2023-01-26T17:58:26.875Z,19.55
2023-01-26T18:00:54.406Z,21.67
2023-01-26T18:03:26.264Z,19.65
2023-01-26T18:05:54.754Z,20.23
2023-01-26T18:08:22.474Z,20.85
2023-01-26T18:10:50.356Z,20.25
2023-01-26T18:13:17.898Z,21.10
2023-01-26T18:15:46.667Z,22.55
2023-01-26T18:18:14.580Z,22.15
2023-01-26T18:20:42.082Z,22.77
2023-01-26T18:23:09.782Z,22.90
2023-01-26T18:25:37.266Z,22.95
2023-01-26T18:28:07.247Z,21.60
2023-01-26T18:30:35.695Z,23.17
2023-01-26T18:33:04.716Z,23.92
2023-01-26T18:35:34.134Z,22.67
2023-01-26T18:38:01.650Z,19.95
2023-01-26T18:40:29.120Z,22.00
2023-01-26T18:42:56.978Z,22.35
2023-01-26T18:45:24.630Z,19.85
2023-01-26T18:47:52.190Z,22.38
2023-01-26T18:50:20.982Z,20.83
2023-01-26T18:52:48.656Z,20.88
2023-01-26T18:55:16.564Z,21.98
2023-01-26T18:57:44.499Z,23.23
2023-01-26T19:00:13.888Z,23.60
2023-01-26T19:02:41.441Z,24.80
2023-01-26T19:05:09.893Z,24.33
2023-01-26T19:07:39.294Z,23.75
2023-01-26T19:10:08.368Z,25.92
2023-01-26T19:12:35.866Z,24.60
2023-01-26T19:15:03.669Z,27.27
2023-01-26T19:17:31.132Z,26.23
2023-01-26T19:19:58.586Z,28.75
2023-01-26T19:22:26.028Z,28.90
2023-01-26T19:24:54.840Z,26.00
2023-01-26T19:27:22.452Z,30.05
2023-01-26T19:29:51.577Z,30.23
2023-01-26T19:32:19.080Z,28.75
2023-01-26T19:34:46.542Z,28.17
2023-01-26T19:37:14.553Z,28.10
2023-01-26T19:39:42.040Z,27.80
2023-01-26T19:42:10.802Z,28.63
2023-01-26T19:44:38.268Z,29.10
2023-01-26T19:47:05.825Z,29.88
2023-01-26T19:49:33.375Z,29.50
2023-01-26T19:52:01.301Z,30.48
2023-01-26T19:54:29.926Z,29.15
2023-01-26T19:56:57.349Z,29.88
2023-01-26T19:59:27.362Z,31.70
2023-01-26T20:01:54.826Z,27.73
2023-01-26T20:04:22.289Z,30.67
2023-01-26T20:06:50.297Z,28.17
2023-01-26T20:09:17.714Z,30.77
2023-01-26T20:11:45.193Z,28.08
2023-01-26T20:14:12.640Z,29.85
2023-01-26T20:16:41.899Z,27.55
2023-01-26T20:19:09.381Z,27.38
2023-01-26T20:21:38.776Z,27.67
2023-01-26T20:24:07.251Z,26.80
2023-01-26T20:26:35.254Z,26.13
2023-01-26T20:29:03.276Z,27.77
2023-01-26T20:31:32.502Z,27.95
2023-01-26T20:34:02.109Z,28.02
2023-01-26T20:36:29.773Z,28.25
2023-01-26T20:38:57.409Z,27.88
2023-01-26T20:41:27.335Z,28.75
2023-01-26T20:44:01.260Z,29.05
2023-01-26T20:46:30.356Z,26.73
2023-01-26T20:48:58.245Z,28.25
2023-01-26T20:51:30.218Z,30.88
2023-01-26T20:53:58.382Z,25.67
2023-01-26T20:56:26.203Z,29.70
2023-01-26T20:58:54.444Z,26.05
2023-01-26T21:01:23.093Z,26.48
2023-01-26T21:03:50.693Z,24.40
2023-01-26T21:06:19.957Z,25.73
2023-01-26T21:08:49.707Z,24.83
2023-01-26T21:11:18.062Z,22.85
2023-01-26T21:13:46.832Z,24.77
2023-01-26T21:16:16.114Z,24.55
2023-01-26T21:18:43.915Z,26.75
2023-01-26T21:21:12.659Z,28.40
2023-01-26T21:23:40.654Z,26.05
2023-01-26T21:26:12.463Z,26.65
2023-01-26T21:31:09.687Z,26.35
2023-01-26T21:33:38.828Z,24.88
2023-01-26T21:36:07.860Z,28.90
2023-01-26T21:38:37.076Z,24.52
2023-01-26T21:41:26.137Z,26.58
2023-01-26T21:43:57.134Z,25.55
2023-01-26T21:46:24.753Z,19.58
2023-01-26T21:48:52.393Z,24.00
2023-01-26T21:51:37.883Z,24.83
2023-01-26T21:54:06.955Z,25.92
2023-01-26T21:56:34.910Z,26.17
2023-01-26T21:59:05.880Z,25.55
2023-01-26T22:01:35.511Z,26.30
2023-01-26T22:04:04.996Z,26.33
2023-01-26T22:06:32.446Z,25.42
2023-01-26T22:08:59.994Z,27.05
2023-01-26T22:11:28.126Z,25.73
2023-01-26T22:13:55.726Z,24.08
2023-01-26T22:16:24.667Z,26.23
2023-01-26T22:18:52.473Z,25.70
2023-01-26T22:21:20.044Z,27.23
2023-01-26T22:23:47.768Z,26.05
2023-01-26T22:26:17.083Z,27.80
2023-01-26T22:28:50.102Z,28.50
2023-01-26T22:31:19.822Z,27.48
2023-01-26T22:33:48.837Z,27.35
2023-01-26T22:36:16.992Z,27.27
2023-01-26T22:38:44.474Z,29.00
2023-01-26T22:41:15.100Z,29.02
2023-01-26T22:43:42.900Z,28.48
2023-01-26T22:46:12.458Z,29.83
2023-01-26T22:48:40.040Z,26.98
2023-01-26T22:51:09.955Z,27.27
2023-01-26T22:53:37.653Z,34.35
2023-01-26T22:56:06.155Z,35.30
2023-01-26T22:58:39.636Z,25.83
2023-01-26T23:01:14.003Z,27.90
2023-01-26T23:03:42.467Z,31.40
2023-01-26T23:06:15.388Z,29.83
2023-01-26T23:08:42.997Z,27.10
2023-01-26T23:11:13.919Z,26.77
2023-01-26T23:13:42.416Z,24.37
2023-01-26T23:16:10.424Z,27.83
2023-01-26T23:18:38.145Z,26.10
2023-01-26T23:21:06.843Z,23.85
2023-01-26T23:23:35.899Z,25.83
2023-01-26T23:26:03.612Z,25.55
2023-01-26T23:28:33.652Z,28.00
2023-01-26T23:31:01.555Z,26.90
2023-01-26T23:33:30.634Z,25.33
2023-01-26T23:35:58.370Z,23.83
2023-01-26T23:38:27.376Z,25.67
2023-01-26T23:40:56.379Z,24.63
2023-01-26T23:43:24.437Z,26.30
2023-01-26T23:45:52.308Z,24.90
2023-01-26T23:48:20.549Z,25.50
2023-01-26T23:50:48.116Z,24.40
2023-01-26T23:53:15.779Z,24.52
2023-01-26T23:55:44.359Z,26.85
2023-01-26T23:58:13.165Z,27.45
